createdAt,value
2022-08-12T00:02:23.492Z,3.00
2022-08-12T00:07:40.991Z,3.90
2022-08-12T00:12:53.312Z,3.60
2022-08-12T00:18:05.313Z,3.70
2022-08-12T00:23:18.976Z,3.40
2022-08-12T00:28:30.356Z,3.10
2022-08-12T00:33:52.253Z,3.33
2022-08-12T00:39:04.331Z,3.28
2022-08-12T00:43:59.130Z,2.92
2022-08-12T00:48:53.497Z,4.32
2022-08-12T00:53:46.291Z,6.82
2022-08-12T00:58:41.619Z,4.03
2022-08-12T01:03:59.374Z,4.07
2022-08-12T01:09:11.414Z,3.42
2022-08-12T01:14:05.240Z,4.10
2022-08-12T01:18:58.728Z,3.08
2022-08-12T01:24:27.902Z,2.33
2022-08-12T01:29:28.573Z,2.50
2022-08-12T01:34:36.680Z,2.22
2022-08-12T01:39:34.940Z,2.10
2022-08-12T01:44:29.401Z,2.43
2022-08-12T01:49:49.840Z,2.17
2022-08-12T01:54:45.130Z,2.83
2022-08-12T01:59:53.876Z,2.35
2022-08-12T02:05:30.232Z,2.35
2022-08-12T02:10:49.984Z,2.73
2022-08-12T02:16:10.404Z,2.58
2022-08-12T02:21:35.144Z,2.60
2022-08-12T02:26:30.582Z,2.70
2022-08-12T02:31:25.112Z,2.70
2022-08-12T02:36:38.008Z,3.08
2022-08-12T02:41:30.748Z,3.08
2022-08-12T02:46:31.449Z,3.40
2022-08-12T02:51:27.509Z,2.50
2022-08-12T02:56:21.651Z,2.53
2022-08-12T03:01:34.622Z,2.20
2022-08-12T03:06:49.072Z,2.65
2022-08-12T03:12:25.268Z,2.33
2022-08-12T03:17:29.338Z,2.33
2022-08-12T03:22:23.867Z,2.50
2022-08-12T03:27:17.993Z,2.30
2022-08-12T03:32:35.990Z,2.30
2022-08-12T03:37:27.411Z,2.78
2022-08-12T03:42:28.402Z,2.15
2022-08-12T03:48:02.974Z,2.25
2022-08-12T03:53:33.143Z,2.50
2022-08-12T03:58:44.856Z,2.63
2022-08-12T04:03:53.063Z,2.65
2022-08-12T04:08:48.260Z,3.80
2022-08-12T04:13:42.165Z,3.33
2022-08-12T04:18:35.930Z,3.10
2022-08-12T04:23:29.106Z,2.83
2022-08-12T04:28:29.366Z,3.80
2022-08-12T04:33:22.464Z,4.40
2022-08-12T04:38:15.720Z,4.38
2022-08-12T04:43:53.909Z,4.65
2022-08-12T04:48:23.191Z,5.32
2022-08-12T04:53:17.699Z,5.05
2022-08-12T04:58:12.250Z,4.32
2022-08-12T05:03:08.338Z,5.75
2022-08-12T05:08:01.414Z,4.70
2022-08-12T05:12:59.610Z,4.72
2022-08-12T05:17:51.976Z,4.72
2022-08-12T05:22:46.226Z,5.68
2022-08-12T05:27:40.692Z,6.28
2022-08-12T05:32:51.471Z,6.55
2022-08-12T05:37:47.474Z,6.72
2022-08-12T05:42:40.597Z,4.95
2022-08-12T05:47:44.742Z,3.10
2022-08-12T05:52:48.358Z,2.83
2022-08-12T05:57:41.878Z,2.72
2022-08-12T06:02:35.330Z,2.22
2022-08-12T06:08:01.485Z,2.60
2022-08-12T06:12:42.804Z,2.20
2022-08-12T06:17:37.658Z,2.72
2022-08-12T06:22:31.172Z,2.00
2022-08-12T06:27:24.597Z,2.70
2022-08-12T06:32:18.575Z,2.30
2022-08-12T06:37:12.678Z,2.30
2022-08-12T06:42:31.856Z,2.78
2022-08-12T06:47:25.793Z,2.70
2022-08-12T06:52:23.413Z,2.78
2022-08-12T06:58:05.396Z,3.13
2022-08-12T07:02:33.759Z,2.47
2022-08-12T07:07:29.790Z,2.42
2022-08-12T07:12:22.580Z,2.55
2022-08-12T07:17:16.373Z,2.83
2022-08-12T07:22:11.099Z,2.40
2022-08-12T07:27:04.468Z,2.40
2022-08-12T07:31:59.924Z,2.60
2022-08-12T07:36:52.981Z,2.65
2022-08-12T07:41:47.768Z,3.13
2022-08-12T07:46:43.987Z,2.83
2022-08-12T07:51:37.723Z,2.10
2022-08-12T07:56:31.531Z,2.55
2022-08-12T08:01:25.346Z,2.17
2022-08-12T08:12:01.103Z,2.72
2022-08-12T08:16:54.361Z,3.15
2022-08-12T08:21:47.134Z,2.13
2022-08-12T08:26:58.995Z,1.80
2022-08-12T08:31:55.635Z,1.85
2022-08-12T08:36:50.004Z,1.80
2022-08-12T08:42:19.112Z,1.80
2022-08-12T08:47:13.911Z,1.70
2022-08-12T08:52:11.704Z,1.60
2022-08-12T08:57:08.855Z,2.45
2022-08-12T09:02:03.341Z,1.70
2022-08-12T09:07:16.631Z,1.90
2022-08-12T09:12:36.228Z,1.60
2022-08-12T09:17:42.145Z,2.22
2022-08-12T09:22:37.708Z,1.63
2022-08-12T09:28:03.998Z,1.67
2022-08-12T09:33:04.928Z,1.75
2022-08-12T09:38:04.632Z,1.75
2022-08-12T09:43:18.715Z,2.00
2022-08-12T09:48:19.853Z,1.67
2022-08-12T09:53:29.268Z,1.38
2022-08-12T09:58:57.354Z,1.98
2022-08-12T10:04:03.272Z,1.63
2022-08-12T10:09:02.168Z,1.85
2022-08-12T10:13:58.453Z,1.70
2022-08-12T10:18:56.949Z,1.73
2022-08-12T10:23:51.804Z,1.33
2022-08-12T10:30:01.493Z,1.35
2022-08-12T10:34:26.558Z,1.85
2022-08-12T10:40:05.665Z,1.45
2022-08-12T10:44:36.948Z,1.40
2022-08-12T10:50:06.991Z,1.50
2022-08-12T10:54:51.470Z,1.70
2022-08-12T11:00:29.169Z,1.45
2022-08-12T11:07:07.182Z,1.23
2022-08-12T11:10:15.417Z,1.45
2022-08-12T11:15:18.514Z,1.20
2022-08-12T11:20:15.523Z,1.48
2022-08-12T11:25:11.666Z,1.48
2022-08-12T11:30:30.565Z,1.20
2022-08-12T11:35:20.213Z,1.05
2022-08-12T11:40:15.416Z,1.40
2022-08-12T11:45:12.596Z,1.15
2022-08-12T11:50:19.168Z,1.40
2022-08-12T11:55:15.033Z,1.20
2022-08-12T12:05:28.476Z,0.98
2022-08-12T12:10:34.391Z,0.90
2022-08-12T12:15:40.934Z,1.38
2022-08-12T12:20:35.762Z,1.00
2022-08-12T12:26:07.229Z,1.10
2022-08-12T12:30:54.747Z,1.10
2022-08-12T12:36:16.724Z,1.33
2022-08-12T12:41:14.496Z,1.00
2022-08-12T12:46:10.102Z,1.35
2022-08-12T12:51:22.147Z,0.88
2022-08-12T12:56:34.705Z,0.90
2022-08-12T13:01:32.846Z,1.20
2022-08-12T13:06:31.754Z,1.10
2022-08-12T13:11:32.714Z,0.90
2022-08-12T13:16:36.395Z,1.08
2022-08-12T13:21:57.756Z,1.08
2022-08-12T13:26:52.150Z,1.38
2022-08-12T13:32:19.651Z,1.30
2022-08-12T13:37:00.472Z,1.38
2022-08-12T13:42:00.530Z,1.27
2022-08-12T13:46:58.815Z,1.50
2022-08-12T13:51:55.158Z,0.88
2022-08-12T13:56:51.619Z,1.20
2022-08-12T14:01:51.030Z,1.15
2022-08-12T14:06:51.354Z,1.00
2022-08-12T14:11:58.406Z,1.10
2022-08-12T14:16:53.973Z,1.10
2022-08-12T14:21:59.728Z,1.17
2022-08-12T14:27:01.808Z,1.55
2022-08-12T14:31:55.703Z,1.00
2022-08-12T14:36:50.809Z,1.10
2022-08-12T14:41:57.402Z,1.00
2022-08-12T14:46:55.856Z,1.33
2022-08-12T14:52:56.006Z,1.52
2022-08-12T14:57:24.021Z,1.23
2022-08-12T15:02:21.502Z,1.15
2022-08-12T15:07:33.810Z,1.20
2022-08-12T15:12:30.516Z,1.10
2022-08-12T15:17:37.970Z,1.10
2022-08-12T15:28:04.199Z,1.48
2022-08-12T15:32:48.615Z,1.30
2022-08-12T15:38:08.676Z,1.40
2022-08-12T15:42:57.831Z,1.35
2022-08-12T15:48:04.576Z,1.25
2022-08-12T15:53:14.544Z,1.10
2022-08-12T15:58:09.998Z,1.40
2022-08-12T16:03:08.562Z,1.10
2022-08-12T16:08:18.429Z,1.20
2022-08-12T16:13:32.376Z,1.20
2022-08-12T16:18:29.366Z,1.55
2022-08-12T16:23:36.586Z,1.40
2022-08-12T16:28:38.880Z,1.45
2022-08-12T16:33:59.028Z,1.48
2022-08-12T16:38:55.026Z,1.83
2022-08-12T16:43:49.140Z,1.40
2022-08-12T16:48:44.406Z,1.13
2022-08-12T16:53:44.230Z,1.38
2022-08-12T16:58:39.736Z,1.85
2022-08-12T17:03:39.030Z,1.67
2022-08-12T17:08:55.438Z,1.70
2022-08-12T17:13:53.638Z,1.50
2022-08-12T17:18:57.897Z,3.13
2022-08-12T17:23:54.649Z,2.22
2022-08-12T17:28:49.881Z,3.95
2022-08-12T17:33:46.611Z,3.17
2022-08-12T17:38:41.135Z,3.67
2022-08-12T17:43:52.044Z,3.40
2022-08-12T17:48:55.121Z,2.78
2022-08-12T17:54:11.062Z,3.20
2022-08-12T17:59:04.146Z,4.05
2022-08-12T18:04:20.258Z,2.60
2022-08-12T18:09:16.116Z,2.58
2022-08-12T18:14:10.102Z,2.40
2022-08-12T18:19:09.828Z,2.38
2022-08-12T18:24:03.929Z,2.20
2022-08-12T18:29:22.065Z,3.10
2022-08-12T18:34:23.348Z,2.90
2022-08-12T18:39:20.287Z,2.65
2022-08-12T18:44:14.431Z,2.50
2022-08-12T18:49:18.169Z,3.40
2022-08-12T18:54:12.915Z,3.00
2022-08-12T18:59:59.816Z,3.00
2022-08-12T19:04:33.710Z,2.58
2022-08-12T19:09:59.051Z,2.53
2022-08-12T19:14:52.651Z,4.43
2022-08-12T19:20:03.411Z,2.50
2022-08-12T19:25:15.698Z,2.67
2022-08-12T19:30:12.789Z,3.25
2022-08-12T19:36:23.957Z,3.00
2022-08-12T19:40:31.469Z,2.80
2022-08-12T19:45:42.165Z,4.05
2022-08-12T19:50:38.415Z,3.15
2022-08-12T19:55:35.281Z,3.33
2022-08-12T20:00:34.699Z,3.85
2022-08-12T20:06:05.723Z,3.40
2022-08-12T20:12:12.970Z,3.50
2022-08-12T20:16:45.501Z,3.35
2022-08-12T20:21:40.284Z,3.60
2022-08-12T20:26:35.383Z,3.90
2022-08-12T20:31:31.493Z,3.90
2022-08-12T20:36:41.611Z,4.85
2022-08-12T20:41:37.337Z,4.03
2022-08-12T20:46:34.712Z,3.95
2022-08-12T20:51:52.782Z,4.20
2022-08-12T20:56:42.844Z,3.58
2022-08-12T21:01:47.657Z,3.42
2022-08-12T21:07:04.534Z,3.40
2022-08-12T21:12:05.489Z,3.80
2022-08-12T21:17:19.253Z,3.45
2022-08-12T21:27:57.997Z,2.55
2022-08-12T21:32:44.013Z,2.88
2022-08-12T21:37:42.004Z,3.00
2022-08-12T21:42:36.085Z,4.53
2022-08-12T21:47:30.377Z,3.22
2022-08-12T21:52:28.263Z,3.70
2022-08-12T21:57:36.457Z,3.05
2022-08-12T22:03:02.969Z,2.85
2022-08-12T22:07:59.380Z,4.35
2022-08-12T22:12:58.460Z,4.15
2022-08-12T22:17:56.970Z,3.40
2022-08-12T22:22:53.864Z,3.42
2022-08-12T22:28:10.052Z,4.35
2022-08-12T22:33:08.005Z,3.40
2022-08-12T22:38:20.188Z,3.47
2022-08-12T22:43:32.890Z,3.55
2022-08-12T22:48:27.763Z,5.32
2022-08-12T22:53:22.629Z,4.28
2022-08-12T22:58:20.055Z,4.72
2022-08-12T23:03:48.422Z,5.18
2022-08-12T23:08:38.176Z,5.10
2022-08-12T23:14:07.709Z,5.55
2022-08-12T23:19:18.034Z,4.65
2022-08-12T23:24:19.603Z,3.00
2022-08-12T23:29:29.966Z,2.30
2022-08-12T23:34:38.130Z,2.10
2022-08-12T23:40:14.524Z,2.20
2022-08-12T23:44:48.601Z,2.25
2022-08-12T23:49:57.025Z,2.00
2022-08-12T23:54:58.171Z,2.20
2022-08-12T23:59:55.673Z,2.00
